Terminal Aerodrome Forecast
Issued by NWS Pueblo, CO

Home | Current Version | Previous Version | Text Only | Print | Product List | Glossary On
Versions: 1 2 3 4 5 6 7 8 9 10 11 12 13 14 15 16 17 18 19 20 21 22 23 24 25 26 27 28 29 30 31 32 33 34 35 36 37 38 39 40 41 42 43 44 45
000
FTUS45 KPUB 282327
TAFPUB
TAF
KPUB 282327Z 0100/0124 12006KT P6SM VCSH BKN025
      TEMPO 0101/0102 5SM -SN SCT012 BKN025
     FM010200 VRB06KT 5SM -SN BR BKN025
     FM011000 VRB04KT 4SM BR FEW010 SCT030 SCT120
     FM011600 04007KT P6SM SCT018 BKN050
     FM011900 09008KT 5SM BR VCSH SCT012 BKN030=

USA.gov is the U.S. government's official web portal to all federal, state and local government web resources and services.